sensor_id;sensor_type;location;lat;lon;timestamp;temperature;humidity
44851;DHT22;30583;48.714;9.386;2023-08-31T00:02:06;16.80;77.70
44851;DHT22;30583;48.714;9.386;2023-08-31T00:04:32;16.70;78.20
44851;DHT22;30583;48.714;9.386;2023-08-31T00:06:58;16.70;78.40
44851;DHT22;30583;48.714;9.386;2023-08-31T00:09:24;16.50;79.30
44851;DHT22;30583;48.714;9.386;2023-08-31T00:11:50;16.60;79.50
44851;DHT22;30583;48.714;9.386;2023-08-31T00:14:16;16.70;78.70
44851;DHT22;30583;48.714;9.386;2023-08-31T00:16:42;16.80;78.20
44851;DHT22;30583;48.714;9.386;2023-08-31T00:19:11;16.90;77.70
44851;DHT22;30583;48.714;9.386;2023-08-31T00:21:37;16.80;78.80
44851;DHT22;30583;48.714;9.386;2023-08-31T00:24:02;16.80;78.70
44851;DHT22;30583;48.714;9.386;2023-08-31T00:26:28;16.50;79.30
44851;DHT22;30583;48.714;9.386;2023-08-31T00:28:56;16.60;79.50
44851;DHT22;30583;48.714;9.386;2023-08-31T00:31:22;16.70;79.10
44851;DHT22;30583;48.714;9.386;2023-08-31T00:33:48;16.70;79.30
44851;DHT22;30583;48.714;9.386;2023-08-31T00:36:14;16.80;78.70
44851;DHT22;30583;48.714;9.386;2023-08-31T00:38:39;16.90;78.20
44851;DHT22;30583;48.714;9.386;2023-08-31T00:41:05;16.80;78.50
44851;DHT22;30583;48.714;9.386;2023-08-31T00:43:31;16.90;78.10
44851;DHT22;30583;48.714;9.386;2023-08-31T00:45:57;16.70;78.30
44851;DHT22;30583;48.714;9.386;2023-08-31T00:48:24;16.50;79.30
44851;DHT22;30583;48.714;9.386;2023-08-31T00:50:50;16.70;79.20
44851;DHT22;30583;48.714;9.386;2023-08-31T00:53:17;16.70;79.20
44851;DHT22;30583;48.714;9.386;2023-08-31T00:55:46;16.70;79.30
44851;DHT22;30583;48.714;9.386;2023-08-31T00:58:11;16.70;78.90
44851;DHT22;30583;48.714;9.386;2023-08-31T01:00:58;16.70;78.50
44851;DHT22;30583;48.714;9.386;2023-08-31T01:03:43;16.50;78.30
44851;DHT22;30583;48.714;9.386;2023-08-31T01:09:20;16.50;78.80
44851;DHT22;30583;48.714;9.386;2023-08-31T01:11:52;16.30;78.70
44851;DHT22;30583;48.714;9.386;2023-08-31T01:14:24;16.00;80.20
44851;DHT22;30583;48.714;9.386;2023-08-31T01:16:51;16.20;79.50
44851;DHT22;30583;48.714;9.386;2023-08-31T01:19:32;16.10;79.50
44851;DHT22;30583;48.714;9.386;2023-08-31T01:22:05;16.20;79.50
44851;DHT22;30583;48.714;9.386;2023-08-31T01:24:33;16.00;80.00
44851;DHT22;30583;48.714;9.386;2023-08-31T01:26:59;15.90;80.50
44851;DHT22;30583;48.714;9.386;2023-08-31T01:29:25;16.00;80.10
44851;DHT22;30583;48.714;9.386;2023-08-31T01:31:51;16.20;79.00
44851;DHT22;30583;48.714;9.386;2023-08-31T01:34:16;16.10;79.00
44851;DHT22;30583;48.714;9.386;2023-08-31T01:36:46;16.10;79.20
44851;DHT22;30583;48.714;9.386;2023-08-31T01:39:17;16.10;78.90
44851;DHT22;30583;48.714;9.386;2023-08-31T01:41:51;16.20;79.00
44851;DHT22;30583;48.714;9.386;2023-08-31T01:44:18;16.00;79.20
44851;DHT22;30583;48.714;9.386;2023-08-31T01:46:52;16.20;79.00
44851;DHT22;30583;48.714;9.386;2023-08-31T01:49:21;16.30;78.70
44851;DHT22;30583;48.714;9.386;2023-08-31T01:51:47;16.30;78.60
44851;DHT22;30583;48.714;9.386;2023-08-31T01:54:13;16.30;78.50
44851;DHT22;30583;48.714;9.386;2023-08-31T01:56:38;16.40;78.30
44851;DHT22;30583;48.714;9.386;2023-08-31T01:59:04;16.30;78.40
44851;DHT22;30583;48.714;9.386;2023-08-31T02:01:32;16.30;78.10
44851;DHT22;30583;48.714;9.386;2023-08-31T02:03:58;15.90;79.10
44851;DHT22;30583;48.714;9.386;2023-08-31T02:06:23;15.80;79.60
44851;DHT22;30583;48.714;9.386;2023-08-31T02:08:49;16.00;79.40
44851;DHT22;30583;48.714;9.386;2023-08-31T02:11:14;16.00;78.80
44851;DHT22;30583;48.714;9.386;2023-08-31T02:13:41;16.20;78.90
44851;DHT22;30583;48.714;9.386;2023-08-31T02:16:07;16.10;78.70
44851;DHT22;30583;48.714;9.386;2023-08-31T02:18:32;16.20;78.60
44851;DHT22;30583;48.714;9.386;2023-08-31T02:20:58;16.30;78.30
44851;DHT22;30583;48.714;9.386;2023-08-31T02:23:24;16.20;78.60
44851;DHT22;30583;48.714;9.386;2023-08-31T02:25:49;16.20;78.70
44851;DHT22;30583;48.714;9.386;2023-08-31T02:28:15;16.20;78.90
44851;DHT22;30583;48.714;9.386;2023-08-31T02:30:44;16.20;78.60
44851;DHT22;30583;48.714;9.386;2023-08-31T02:33:09;16.20;78.60
44851;DHT22;30583;48.714;9.386;2023-08-31T02:35:35;16.30;78.30
44851;DHT22;30583;48.714;9.386;2023-08-31T02:38:01;16.10;79.00
44851;DHT22;30583;48.714;9.386;2023-08-31T02:40:27;16.20;78.50
44851;DHT22;30583;48.714;9.386;2023-08-31T02:42:53;16.10;78.50
44851;DHT22;30583;48.714;9.386;2023-08-31T02:45:19;15.70;79.50
44851;DHT22;30583;48.714;9.386;2023-08-31T02:47:44;15.90;79.80
44851;DHT22;30583;48.714;9.386;2023-08-31T02:50:10;16.00;78.80
44851;DHT22;30583;48.714;9.386;2023-08-31T02:52:35;15.90;79.30
44851;DHT22;30583;48.714;9.386;2023-08-31T02:55:01;15.60;80.60
44851;DHT22;30583;48.714;9.386;2023-08-31T02:57:26;15.80;79.60
44851;DHT22;30583;48.714;9.386;2023-08-31T02:59:52;16.00;79.20
44851;DHT22;30583;48.714;9.386;2023-08-31T03:02:18;16.20;78.70
44851;DHT22;30583;48.714;9.386;2023-08-31T03:04:44;16.20;78.70
44851;DHT22;30583;48.714;9.386;2023-08-31T03:07:09;16.10;78.90
44851;DHT22;30583;48.714;9.386;2023-08-31T03:09:39;16.10;79.40
44851;DHT22;30583;48.714;9.386;2023-08-31T03:12:05;16.00;79.80
44851;DHT22;30583;48.714;9.386;2023-08-31T03:14:30;16.00;79.70
44851;DHT22;30583;48.714;9.386;2023-08-31T03:16:56;16.00;79.70
44851;DHT22;30583;48.714;9.386;2023-08-31T03:19:22;15.80;80.00
44851;DHT22;30583;48.714;9.386;2023-08-31T03:21:47;16.00;79.40
44851;DHT22;30583;48.714;9.386;2023-08-31T03:24:13;15.40;81.00
44851;DHT22;30583;48.714;9.386;2023-08-31T03:26:39;15.20;81.90
44851;DHT22;30583;48.714;9.386;2023-08-31T03:29:04;15.20;81.70
44851;DHT22;30583;48.714;9.386;2023-08-31T03:31:30;15.50;81.40
44851;DHT22;30583;48.714;9.386;2023-08-31T03:33:56;15.80;80.30
44851;DHT22;30583;48.714;9.386;2023-08-31T03:36:22;15.90;79.80
44851;DHT22;30583;48.714;9.386;2023-08-31T03:38:49;15.50;80.30
44851;DHT22;30583;48.714;9.386;2023-08-31T03:41:15;15.70;80.50
44851;DHT22;30583;48.714;9.386;2023-08-31T03:43:40;15.90;79.30
44851;DHT22;30583;48.714;9.386;2023-08-31T03:46:06;15.70;80.00
44851;DHT22;30583;48.714;9.386;2023-08-31T03:48:32;15.70;79.80
44851;DHT22;30583;48.714;9.386;2023-08-31T03:50:57;15.80;79.60
44851;DHT22;30583;48.714;9.386;2023-08-31T03:53:23;15.90;79.40
44851;DHT22;30583;48.714;9.386;2023-08-31T03:55:49;15.80;79.40
44851;DHT22;30583;48.714;9.386;2023-08-31T03:58:14;15.70;80.00
44851;DHT22;30583;48.714;9.386;2023-08-31T04:00:40;15.70;79.70
44851;DHT22;30583;48.714;9.386;2023-08-31T04:03:06;15.80;79.60
44851;DHT22;30583;48.714;9.386;2023-08-31T04:05:35;15.80;79.90
44851;DHT22;30583;48.714;9.386;2023-08-31T04:08:01;15.90;79.40
44851;DHT22;30583;48.714;9.386;2023-08-31T04:10:27;15.90;79.70
44851;DHT22;30583;48.714;9.386;2023-08-31T04:12:55;15.70;80.00
44851;DHT22;30583;48.714;9.386;2023-08-31T04:15:21;15.40;80.70
44851;DHT22;30583;48.714;9.386;2023-08-31T04:17:46;15.50;80.80
44851;DHT22;30583;48.714;9.386;2023-08-31T04:20:12;15.70;80.30
44851;DHT22;30583;48.714;9.386;2023-08-31T04:22:38;15.80;79.80
44851;DHT22;30583;48.714;9.386;2023-08-31T04:25:04;15.80;79.70
44851;DHT22;30583;48.714;9.386;2023-08-31T04:27:29;15.80;79.60
44851;DHT22;30583;48.714;9.386;2023-08-31T04:30:03;15.80;79.50
44851;DHT22;30583;48.714;9.386;2023-08-31T04:32:28;15.80;79.70
44851;DHT22;30583;48.714;9.386;2023-08-31T04:34:54;15.70;80.20
44851;DHT22;30583;48.714;9.386;2023-08-31T04:37:21;15.80;79.90
44851;DHT22;30583;48.714;9.386;2023-08-31T04:39:47;15.70;80.10
44851;DHT22;30583;48.714;9.386;2023-08-31T04:42:12;15.70;80.10
44851;DHT22;30583;48.714;9.386;2023-08-31T04:44:38;15.70;80.10
44851;DHT22;30583;48.714;9.386;2023-08-31T04:47:04;15.60;79.90
44851;DHT22;30583;48.714;9.386;2023-08-31T04:49:29;15.70;79.90
44851;DHT22;30583;48.714;9.386;2023-08-31T04:51:56;15.50;80.40
44851;DHT22;30583;48.714;9.386;2023-08-31T04:54:21;15.50;80.50
44851;DHT22;30583;48.714;9.386;2023-08-31T04:56:47;15.40;80.70
44851;DHT22;30583;48.714;9.386;2023-08-31T04:59:13;15.50;80.10
44851;DHT22;30583;48.714;9.386;2023-08-31T05:01:38;15.70;79.70
44851;DHT22;30583;48.714;9.386;2023-08-31T05:04:04;15.90;79.30
44851;DHT22;30583;48.714;9.386;2023-08-31T05:06:29;16.60;77.80
44851;DHT22;30583;48.714;9.386;2023-08-31T05:08:55;16.70;77.30
44851;DHT22;30583;48.714;9.386;2023-08-31T05:11:22;16.30;77.80
44851;DHT22;30583;48.714;9.386;2023-08-31T05:13:48;16.50;78.00
44851;DHT22;30583;48.714;9.386;2023-08-31T05:16:14;16.80;76.70
44851;DHT22;30583;48.714;9.386;2023-08-31T05:18:39;16.70;75.80
44851;DHT22;30583;48.714;9.386;2023-08-31T05:21:05;16.70;76.80
44851;DHT22;30583;48.714;9.386;2023-08-31T05:23:31;16.50;76.80
44851;DHT22;30583;48.714;9.386;2023-08-31T05:25:57;16.70;77.30
44851;DHT22;30583;48.714;9.386;2023-08-31T05:28:23;16.70;76.20
44851;DHT22;30583;48.714;9.386;2023-08-31T05:30:50;16.80;76.40
44851;DHT22;30583;48.714;9.386;2023-08-31T05:33:19;16.90;77.20
44851;DHT22;30583;48.714;9.386;2023-08-31T05:35:45;17.40;76.30
44851;DHT22;30583;48.714;9.386;2023-08-31T05:38:11;17.50;75.30
44851;DHT22;30583;48.714;9.386;2023-08-31T05:40:37;17.70;75.20
44851;DHT22;30583;48.714;9.386;2023-08-31T05:43:02;17.80;74.70
44851;DHT22;30583;48.714;9.386;2023-08-31T05:45:35;17.70;74.40
44851;DHT22;30583;48.714;9.386;2023-08-31T05:48:00;17.60;74.50
44851;DHT22;30583;48.714;9.386;2023-08-31T05:50:27;17.50;75.80
44851;DHT22;30583;48.714;9.386;2023-08-31T05:52:53;17.70;75.00
44851;DHT22;30583;48.714;9.386;2023-08-31T05:55:18;17.80;74.50
44851;DHT22;30583;48.714;9.386;2023-08-31T05:57:44;17.80;74.60
44851;DHT22;30583;48.714;9.386;2023-08-31T06:00:10;17.80;74.70
44851;DHT22;30583;48.714;9.386;2023-08-31T06:02:36;17.90;74.30
44851;DHT22;30583;48.714;9.386;2023-08-31T06:05:02;17.90;73.80
44851;DHT22;30583;48.714;9.386;2023-08-31T06:07:29;17.70;74.50
44851;DHT22;30583;48.714;9.386;2023-08-31T06:09:55;16.90;75.20
44851;DHT22;30583;48.714;9.386;2023-08-31T06:12:21;17.00;75.80
44851;DHT22;30583;48.714;9.386;2023-08-31T06:14:47;17.60;75.70
44851;DHT22;30583;48.714;9.386;2023-08-31T06:17:12;17.40;74.40
44851;DHT22;30583;48.714;9.386;2023-08-31T06:19:41;17.40;75.20
44851;DHT22;30583;48.714;9.386;2023-08-31T06:22:08;17.30;74.90
44851;DHT22;30583;48.714;9.386;2023-08-31T06:24:34;17.60;74.90
44851;DHT22;30583;48.714;9.386;2023-08-31T06:27:00;17.90;74.20
44851;DHT22;30583;48.714;9.386;2023-08-31T06:29:26;17.70;72.80
44851;DHT22;30583;48.714;9.386;2023-08-31T06:31:52;17.50;74.00
44851;DHT22;30583;48.714;9.386;2023-08-31T06:34:17;17.60;74.70
44851;DHT22;30583;48.714;9.386;2023-08-31T06:36:43;17.50;74.20
44851;DHT22;30583;48.714;9.386;2023-08-31T06:39:09;17.40;74.70
44851;DHT22;30583;48.714;9.386;2023-08-31T06:41:34;17.70;74.10
44851;DHT22;30583;48.714;9.386;2023-08-31T06:44:01;17.70;73.60
44851;DHT22;30583;48.714;9.386;2023-08-31T06:46:27;17.80;73.40
44851;DHT22;30583;48.714;9.386;2023-08-31T06:48:53;17.60;73.70
44851;DHT22;30583;48.714;9.386;2023-08-31T06:51:19;17.60;74.60
44851;DHT22;30583;48.714;9.386;2023-08-31T06:53:44;17.80;73.60
44851;DHT22;30583;48.714;9.386;2023-08-31T06:56:10;17.90;73.80
44851;DHT22;30583;48.714;9.386;2023-08-31T06:58:35;17.80;74.00
44851;DHT22;30583;48.714;9.386;2023-08-31T07:01:05;17.90;73.70
44851;DHT22;30583;48.714;9.386;2023-08-31T07:03:31;18.00;73.20
44851;DHT22;30583;48.714;9.386;2023-08-31T07:05:57;18.00;73.70
44851;DHT22;30583;48.714;9.386;2023-08-31T07:08:22;17.90;74.20
44851;DHT22;30583;48.714;9.386;2023-08-31T07:10:51;18.00;73.90
44851;DHT22;30583;48.714;9.386;2023-08-31T07:13:17;17.90;74.50
44851;DHT22;30583;48.714;9.386;2023-08-31T07:15:43;17.90;74.20
44851;DHT22;30583;48.714;9.386;2023-08-31T07:18:08;17.90;73.90
44851;DHT22;30583;48.714;9.386;2023-08-31T07:20:34;17.90;74.30
44851;DHT22;30583;48.714;9.386;2023-08-31T07:23:00;17.90;73.80
44851;DHT22;30583;48.714;9.386;2023-08-31T07:25:25;17.90;73.20
44851;DHT22;30583;48.714;9.386;2023-08-31T07:27:52;17.90;73.60
44851;DHT22;30583;48.714;9.386;2023-08-31T07:30:18;18.10;73.20
44851;DHT22;30583;48.714;9.386;2023-08-31T07:32:44;18.00;73.60
44851;DHT22;30583;48.714;9.386;2023-08-31T07:35:09;17.90;73.80
44851;DHT22;30583;48.714;9.386;2023-08-31T07:37:35;17.80;74.10
44851;DHT22;30583;48.714;9.386;2023-08-31T07:40:03;17.90;74.10
44851;DHT22;30583;48.714;9.386;2023-08-31T07:42:29;17.70;73.60
44851;DHT22;30583;48.714;9.386;2023-08-31T07:44:55;17.70;73.30
44851;DHT22;30583;48.714;9.386;2023-08-31T07:47:20;17.20;73.90
44851;DHT22;30583;48.714;9.386;2023-08-31T07:49:46;17.00;74.10
44851;DHT22;30583;48.714;9.386;2023-08-31T07:52:12;16.70;75.20
44851;DHT22;30583;48.714;9.386;2023-08-31T07:54:37;16.70;75.70
44851;DHT22;30583;48.714;9.386;2023-08-31T07:57:03;16.70;74.60
44851;DHT22;30583;48.714;9.386;2023-08-31T07:59:29;16.60;74.70
44851;DHT22;30583;48.714;9.386;2023-08-31T08:01:54;16.60;74.60
44851;DHT22;30583;48.714;9.386;2023-08-31T08:04:20;16.80;74.70
44851;DHT22;30583;48.714;9.386;2023-08-31T08:06:45;17.00;73.20
44851;DHT22;30583;48.714;9.386;2023-08-31T08:09:11;17.00;73.70
44851;DHT22;30583;48.714;9.386;2023-08-31T08:11:37;17.20;72.20
44851;DHT22;30583;48.714;9.386;2023-08-31T08:14:03;17.50;71.90
44851;DHT22;30583;48.714;9.386;2023-08-31T08:16:29;17.30;69.80
44851;DHT22;30583;48.714;9.386;2023-08-31T08:18:54;17.40;68.30
44851;DHT22;30583;48.714;9.386;2023-08-31T08:21:20;17.30;66.40
44851;DHT22;30583;48.714;9.386;2023-08-31T08:23:45;17.40;65.40
44851;DHT22;30583;48.714;9.386;2023-08-31T08:26:11;17.40;64.20
44851;DHT22;30583;48.714;9.386;2023-08-31T08:28:36;17.70;63.00
44851;DHT22;30583;48.714;9.386;2023-08-31T08:31:02;17.90;62.60
44851;DHT22;30583;48.714;9.386;2023-08-31T08:33:29;17.80;59.50
44851;DHT22;30583;48.714;9.386;2023-08-31T08:35:58;18.10;61.70
44851;DHT22;30583;48.714;9.386;2023-08-31T08:38:25;18.20;61.70
44851;DHT22;30583;48.714;9.386;2023-08-31T08:40:50;18.30;61.70
44851;DHT22;30583;48.714;9.386;2023-08-31T08:43:20;18.20;61.90
44851;DHT22;30583;48.714;9.386;2023-08-31T08:45:48;18.20;63.50
44851;DHT22;30583;48.714;9.386;2023-08-31T08:48:15;18.30;63.40
44851;DHT22;30583;48.714;9.386;2023-08-31T08:50:40;18.50;62.10
44851;DHT22;30583;48.714;9.386;2023-08-31T08:53:06;18.20;60.90
44851;DHT22;30583;48.714;9.386;2023-08-31T08:55:32;18.20;58.40
44851;DHT22;30583;48.714;9.386;2023-08-31T08:57:58;17.90;59.10
44851;DHT22;30583;48.714;9.386;2023-08-31T09:00:29;17.90;59.10
44851;DHT22;30583;48.714;9.386;2023-08-31T09:02:55;18.00;58.00
44851;DHT22;30583;48.714;9.386;2023-08-31T09:05:22;18.00;59.00
44851;DHT22;30583;48.714;9.386;2023-08-31T09:08:07;18.20;57.60
44851;DHT22;30583;48.714;9.386;2023-08-31T09:10:41;18.40;57.90
44851;DHT22;30583;48.714;9.386;2023-08-31T09:13:12;18.30;56.20
44851;DHT22;30583;48.714;9.386;2023-08-31T09:18:07;18.20;57.80
44851;DHT22;30583;48.714;9.386;2023-08-31T09:20:46;18.40;58.30
44851;DHT22;30583;48.714;9.386;2023-08-31T09:23:16;18.10;57.10
44851;DHT22;30583;48.714;9.386;2023-08-31T09:25:55;18.10;56.70
44851;DHT22;30583;48.714;9.386;2023-08-31T09:28:23;18.10;56.80
44851;DHT22;30583;48.714;9.386;2023-08-31T09:30:51;18.00;57.60
44851;DHT22;30583;48.714;9.386;2023-08-31T09:33:19;18.20;58.60
44851;DHT22;30583;48.714;9.386;2023-08-31T09:35:53;18.40;58.50
44851;DHT22;30583;48.714;9.386;2023-08-31T09:38:19;18.20;57.10
44851;DHT22;30583;48.714;9.386;2023-08-31T09:40:45;18.20;57.30
44851;DHT22;30583;48.714;9.386;2023-08-31T09:43:11;18.10;57.50
44851;DHT22;30583;48.714;9.386;2023-08-31T09:45:37;18.40;57.10
44851;DHT22;30583;48.714;9.386;2023-08-31T09:48:04;18.70;56.10
44851;DHT22;30583;48.714;9.386;2023-08-31T09:50:31;19.10;54.20
44851;DHT22;30583;48.714;9.386;2023-08-31T09:53:02;19.00;53.10
44851;DHT22;30583;48.714;9.386;2023-08-31T09:55:30;18.80;55.50
44851;DHT22;30583;48.714;9.386;2023-08-31T09:57:57;19.00;53.20
44851;DHT22;30583;48.714;9.386;2023-08-31T10:00:28;18.90;52.80
44851;DHT22;30583;48.714;9.386;2023-08-31T10:02:57;18.80;52.20
44851;DHT22;30583;48.714;9.386;2023-08-31T10:05:24;19.20;51.50
44851;DHT22;30583;48.714;9.386;2023-08-31T10:07:50;19.40;50.70
44851;DHT22;30583;48.714;9.386;2023-08-31T10:10:17;19.40;49.90
44851;DHT22;30583;48.714;9.386;2023-08-31T10:12:44;19.40;48.50
44851;DHT22;30583;48.714;9.386;2023-08-31T10:15:11;19.20;50.20
44851;DHT22;30583;48.714;9.386;2023-08-31T10:17:39;19.20;52.50
44851;DHT22;30583;48.714;9.386;2023-08-31T10:20:07;19.30;49.30
44851;DHT22;30583;48.714;9.386;2023-08-31T10:22:33;19.20;48.90
44851;DHT22;30583;48.714;9.386;2023-08-31T10:25:00;18.90;49.50
44851;DHT22;30583;48.714;9.386;2023-08-31T10:27:27;18.70;49.80
44851;DHT22;30583;48.714;9.386;2023-08-31T10:29:52;19.20;48.20
44851;DHT22;30583;48.714;9.386;2023-08-31T10:32:18;19.70;47.20
44851;DHT22;30583;48.714;9.386;2023-08-31T10:35:04;19.10;45.20
44851;DHT22;30583;48.714;9.386;2023-08-31T10:37:30;19.20;46.80
44851;DHT22;30583;48.714;9.386;2023-08-31T10:40:10;19.00;47.90
44851;DHT22;30583;48.714;9.386;2023-08-31T10:42:46;19.30;47.70
44851;DHT22;30583;48.714;9.386;2023-08-31T10:45:13;19.40;48.10
44851;DHT22;30583;48.714;9.386;2023-08-31T10:47:42;19.70;46.10
44851;DHT22;30583;48.714;9.386;2023-08-31T10:50:21;19.70;47.10
44851;DHT22;30583;48.714;9.386;2023-08-31T10:52:47;19.30;46.80
44851;DHT22;30583;48.714;9.386;2023-08-31T10:55:12;19.40;48.10
44851;DHT22;30583;48.714;9.386;2023-08-31T10:57:39;19.20;46.50
44851;DHT22;30583;48.714;9.386;2023-08-31T11:00:07;19.20;46.90
44851;DHT22;30583;48.714;9.386;2023-08-31T11:02:38;19.20;47.90
44851;DHT22;30583;48.714;9.386;2023-08-31T11:05:13;19.50;48.60
44851;DHT22;30583;48.714;9.386;2023-08-31T11:07:48;20.20;46.20
44851;DHT22;30583;48.714;9.386;2023-08-31T11:10:21;20.30;46.60
44851;DHT22;30583;48.714;9.386;2023-08-31T11:12:50;20.40;45.30
44851;DHT22;30583;48.714;9.386;2023-08-31T11:15:19;20.20;45.90
44851;DHT22;30583;48.714;9.386;2023-08-31T11:17:45;20.20;46.10
44851;DHT22;30583;48.714;9.386;2023-08-31T11:20:16;20.00;47.00
44851;DHT22;30583;48.714;9.386;2023-08-31T11:22:43;19.50;45.80
44851;DHT22;30583;48.714;9.386;2023-08-31T11:25:11;19.60;46.80
44851;DHT22;30583;48.714;9.386;2023-08-31T11:27:37;19.80;48.00
44851;DHT22;30583;48.714;9.386;2023-08-31T11:30:16;19.80;47.60
44851;DHT22;30583;48.714;9.386;2023-08-31T11:32:46;19.50;47.80
44851;DHT22;30583;48.714;9.386;2023-08-31T11:35:11;19.50;47.40
44851;DHT22;30583;48.714;9.386;2023-08-31T11:37:37;19.70;47.50
44851;DHT22;30583;48.714;9.386;2023-08-31T11:40:03;19.50;46.80
44851;DHT22;30583;48.714;9.386;2023-08-31T11:42:31;19.60;46.60
44851;DHT22;30583;48.714;9.386;2023-08-31T11:44:57;19.70;47.00
44851;DHT22;30583;48.714;9.386;2023-08-31T11:47:23;20.00;49.30
44851;DHT22;30583;48.714;9.386;2023-08-31T11:49:50;20.00;47.30
44851;DHT22;30583;48.714;9.386;2023-08-31T11:52:17;20.50;46.00
44851;DHT22;30583;48.714;9.386;2023-08-31T11:54:43;21.00;46.80
44851;DHT22;30583;48.714;9.386;2023-08-31T11:57:10;21.20;46.10
44851;DHT22;30583;48.714;9.386;2023-08-31T11:59:36;21.10;46.80
44851;DHT22;30583;48.714;9.386;2023-08-31T12:02:08;20.80;47.70
44851;DHT22;30583;48.714;9.386;2023-08-31T12:04:42;20.70;44.80
44851;DHT22;30583;48.714;9.386;2023-08-31T12:07:16;20.40;43.70
44851;DHT22;30583;48.714;9.386;2023-08-31T12:09:41;20.50;44.90
44851;DHT22;30583;48.714;9.386;2023-08-31T12:12:10;20.40;44.40
44851;DHT22;30583;48.714;9.386;2023-08-31T12:14:37;21.00;44.70
44851;DHT22;30583;48.714;9.386;2023-08-31T12:17:08;21.40;45.60
44851;DHT22;30583;48.714;9.386;2023-08-31T12:19:36;21.60;46.40
44851;DHT22;30583;48.714;9.386;2023-08-31T12:22:02;21.40;45.40
44851;DHT22;30583;48.714;9.386;2023-08-31T12:24:28;21.20;46.40
44851;DHT22;30583;48.714;9.386;2023-08-31T12:26:53;21.30;46.10
44851;DHT22;30583;48.714;9.386;2023-08-31T12:29:19;21.30;45.30
44851;DHT22;30583;48.714;9.386;2023-08-31T12:31:45;20.90;44.60
44851;DHT22;30583;48.714;9.386;2023-08-31T12:34:11;21.10;44.50
44851;DHT22;30583;48.714;9.386;2023-08-31T12:36:37;21.00;46.10
44851;DHT22;30583;48.714;9.386;2023-08-31T12:39:04;21.10;45.70
44851;DHT22;30583;48.714;9.386;2023-08-31T12:41:33;21.70;44.30
44851;DHT22;30583;48.714;9.386;2023-08-31T12:43:58;21.90;43.70
44851;DHT22;30583;48.714;9.386;2023-08-31T12:46:24;21.10;44.70
44851;DHT22;30583;48.714;9.386;2023-08-31T12:48:50;20.80;43.70
44851;DHT22;30583;48.714;9.386;2023-08-31T12:51:17;20.70;45.60
44851;DHT22;30583;48.714;9.386;2023-08-31T12:53:43;21.00;43.90
44851;DHT22;30583;48.714;9.386;2023-08-31T12:56:08;20.90;43.80
44851;DHT22;30583;48.714;9.386;2023-08-31T12:58:34;20.70;45.50
44851;DHT22;30583;48.714;9.386;2023-08-31T13:01:00;20.70;44.80
44851;DHT22;30583;48.714;9.386;2023-08-31T13:03:26;20.70;46.30
44851;DHT22;30583;48.714;9.386;2023-08-31T13:05:52;20.80;44.80
44851;DHT22;30583;48.714;9.386;2023-08-31T13:08:18;20.60;43.50
44851;DHT22;30583;48.714;9.386;2023-08-31T13:10:43;21.30;43.20
44851;DHT22;30583;48.714;9.386;2023-08-31T13:13:16;21.50;42.80
44851;DHT22;30583;48.714;9.386;2023-08-31T13:15:41;21.40;43.00
44851;DHT22;30583;48.714;9.386;2023-08-31T13:18:07;20.80;43.20
44851;DHT22;30583;48.714;9.386;2023-08-31T13:20:32;20.70;43.70
44851;DHT22;30583;48.714;9.386;2023-08-31T13:22:59;20.70;44.20
44851;DHT22;30583;48.714;9.386;2023-08-31T13:25:25;20.90;44.80
44851;DHT22;30583;48.714;9.386;2023-08-31T13:27:50;21.20;45.10
44851;DHT22;30583;48.714;9.386;2023-08-31T13:30:16;21.20;45.00
44851;DHT22;30583;48.714;9.386;2023-08-31T13:32:41;20.80;45.80
44851;DHT22;30583;48.714;9.386;2023-08-31T13:35:09;20.90;46.10
44851;DHT22;30583;48.714;9.386;2023-08-31T13:37:34;20.80;46.20
44851;DHT22;30583;48.714;9.386;2023-08-31T13:40:00;20.70;46.20
44851;DHT22;30583;48.714;9.386;2023-08-31T13:42:26;20.80;47.10
44851;DHT22;30583;48.714;9.386;2023-08-31T13:44:52;20.70;47.90
44851;DHT22;30583;48.714;9.386;2023-08-31T13:47:17;20.70;47.20
44851;DHT22;30583;48.714;9.386;2023-08-31T13:49:43;20.60;47.70
44851;DHT22;30583;48.714;9.386;2023-08-31T13:52:09;20.50;47.80
44851;DHT22;30583;48.714;9.386;2023-08-31T13:54:36;20.30;48.90
44851;DHT22;30583;48.714;9.386;2023-08-31T13:57:01;20.60;48.10
44851;DHT22;30583;48.714;9.386;2023-08-31T13:59:28;21.30;47.20
44851;DHT22;30583;48.714;9.386;2023-08-31T14:01:54;22.10;47.10
44851;DHT22;30583;48.714;9.386;2023-08-31T14:04:20;22.70;47.10
44851;DHT22;30583;48.714;9.386;2023-08-31T14:06:47;23.40;44.80
44851;DHT22;30583;48.714;9.386;2023-08-31T14:09:14;23.90;44.60
44851;DHT22;30583;48.714;9.386;2023-08-31T14:11:39;23.60;43.50
44851;DHT22;30583;48.714;9.386;2023-08-31T14:14:06;24.20;43.00
44851;DHT22;30583;48.714;9.386;2023-08-31T14:16:35;24.10;43.00
44851;DHT22;30583;48.714;9.386;2023-08-31T14:19:05;23.10;44.60
44851;DHT22;30583;48.714;9.386;2023-08-31T14:21:31;22.70;43.90
44851;DHT22;30583;48.714;9.386;2023-08-31T14:23:57;22.50;43.40
44851;DHT22;30583;48.714;9.386;2023-08-31T14:26:23;22.20;46.10
44851;DHT22;30583;48.714;9.386;2023-08-31T14:28:50;22.00;45.60
44851;DHT22;30583;48.714;9.386;2023-08-31T14:31:16;21.70;45.10
44851;DHT22;30583;48.714;9.386;2023-08-31T14:33:42;21.50;45.30
44851;DHT22;30583;48.714;9.386;2023-08-31T14:36:08;21.20;45.80
44851;DHT22;30583;48.714;9.386;2023-08-31T14:38:34;21.30;46.10
44851;DHT22;30583;48.714;9.386;2023-08-31T14:40:59;21.30;46.70
44851;DHT22;30583;48.714;9.386;2023-08-31T14:43:25;21.20;46.20
44851;DHT22;30583;48.714;9.386;2023-08-31T14:45:50;21.30;46.60
44851;DHT22;30583;48.714;9.386;2023-08-31T14:48:16;21.40;47.00
44851;DHT22;30583;48.714;9.386;2023-08-31T14:50:43;21.20;46.90
44851;DHT22;30583;48.714;9.386;2023-08-31T14:53:09;21.40;47.40
44851;DHT22;30583;48.714;9.386;2023-08-31T14:55:34;21.40;47.70
44851;DHT22;30583;48.714;9.386;2023-08-31T14:58:00;21.50;47.00
44851;DHT22;30583;48.714;9.386;2023-08-31T15:00:26;21.20;48.10
44851;DHT22;30583;48.714;9.386;2023-08-31T15:02:51;21.10;48.10
44851;DHT22;30583;48.714;9.386;2023-08-31T15:05:17;21.40;47.80
44851;DHT22;30583;48.714;9.386;2023-08-31T15:07:42;21.30;47.60
44851;DHT22;30583;48.714;9.386;2023-08-31T15:10:08;21.40;47.90
44851;DHT22;30583;48.714;9.386;2023-08-31T15:12:34;21.40;47.60
44851;DHT22;30583;48.714;9.386;2023-08-31T15:14:59;21.20;47.30
44851;DHT22;30583;48.714;9.386;2023-08-31T15:17:25;20.80;47.60
44851;DHT22;30583;48.714;9.386;2023-08-31T15:19:54;20.70;47.80
44851;DHT22;30583;48.714;9.386;2023-08-31T15:22:19;20.80;48.80
44851;DHT22;30583;48.714;9.386;2023-08-31T15:24:46;20.90;47.80
44851;DHT22;30583;48.714;9.386;2023-08-31T15:27:11;20.70;47.80
44851;DHT22;30583;48.714;9.386;2023-08-31T15:29:37;20.70;47.90
44851;DHT22;30583;48.714;9.386;2023-08-31T15:32:03;20.70;48.30
44851;DHT22;30583;48.714;9.386;2023-08-31T15:34:28;20.70;48.60